createdAt,value
2023-03-07T00:00:30.545Z,0
2023-03-07T00:01:46.000Z,0
2023-03-07T00:03:02.000Z,0
2023-03-07T00:04:18.000Z,0
2023-03-07T00:05:34.000Z,0
2023-03-07T00:06:50.000Z,0
2023-03-07T00:08:06.000Z,0
2023-03-07T00:09:22.000Z,0
2023-03-07T00:10:38.000Z,0
2023-03-07T00:11:54.000Z,0
2023-03-07T00:13:10.000Z,0
2023-03-07T00:14:26.000Z,0
2023-03-07T00:15:42.000Z,0
2023-03-07T00:16:57.000Z,0
2023-03-07T00:18:12.000Z,0
2023-03-07T00:19:27.000Z,0
2023-03-07T00:20:43.000Z,0
2023-03-07T00:21:59.000Z,0
2023-03-07T00:23:16.280Z,0
2023-03-07T00:24:32.000Z,0
2023-03-07T00:25:48.560Z,0
2023-03-07T00:27:04.710Z,0
2023-03-07T00:29:36.000Z,0
2023-03-07T00:30:52.000Z,0
2023-03-07T00:32:09.000Z,0
2023-03-07T00:33:25.000Z,0
2023-03-07T00:34:40.000Z,0
2023-03-07T00:35:56.000Z,0
2023-03-07T00:37:12.000Z,0
2023-03-07T00:38:28.000Z,0
2023-03-07T00:39:44.000Z,0
2023-03-07T00:41:01.000Z,0
2023-03-07T00:43:33.000Z,0
2023-03-07T00:44:48.000Z,0
2023-03-07T00:46:03.000Z,0
2023-03-07T00:47:19.000Z,0
2023-03-07T00:48:36.000Z,0
2023-03-07T00:49:52.398Z,0
2023-03-07T00:51:08.000Z,0
2023-03-07T00:52:24.000Z,0
2023-03-07T00:53:40.000Z,0
2023-03-07T00:54:56.000Z,0
2023-03-07T00:56:12.000Z,0
2023-03-07T00:57:29.000Z,0
2023-03-07T00:58:44.000Z,0
2023-03-07T00:59:59.000Z,0
2023-03-07T01:01:15.000Z,0
2023-03-07T01:02:31.000Z,0
2023-03-07T01:03:48.042Z,0
2023-03-07T01:05:03.000Z,0
2023-03-07T01:06:20.000Z,0
2023-03-07T01:07:36.000Z,0
2023-03-07T01:08:52.629Z,0
2023-03-07T01:10:08.000Z,0
2023-03-07T01:11:24.000Z,0
2023-03-07T01:12:40.000Z,0
2023-03-07T01:13:56.000Z,0
2023-03-07T01:15:13.361Z,0
2023-03-07T01:16:28.000Z,0
2023-03-07T01:17:44.000Z,0
2023-03-07T01:19:00.000Z,0
2023-03-07T01:20:16.000Z,0
2023-03-07T01:21:32.000Z,0
2023-03-07T01:22:49.000Z,0
2023-03-07T01:24:05.000Z,0
2023-03-07T01:25:20.000Z,0
2023-03-07T01:26:35.000Z,0
2023-03-07T01:29:07.000Z,0
2023-03-07T01:30:24.177Z,0
2023-03-07T01:31:39.000Z,0
2023-03-07T01:32:54.000Z,0
2023-03-07T01:34:10.000Z,0
2023-03-07T01:35:26.000Z,0
2023-03-07T01:36:42.000Z,0
2023-03-07T01:37:58.000Z,0
2023-03-07T01:39:14.000Z,0
2023-03-07T01:40:31.000Z,0
2023-03-07T01:41:47.000Z,0
2023-03-07T01:43:03.000Z,0
2023-03-07T01:44:19.000Z,0
2023-03-07T01:45:35.000Z,0
2023-03-07T01:46:52.102Z,0
2023-03-07T01:48:08.000Z,0
2023-03-07T01:49:23.000Z,0
2023-03-07T01:50:39.000Z,0
2023-03-07T01:51:55.000Z,0
2023-03-07T01:53:11.000Z,0
2023-03-07T01:54:27.000Z,0
2023-03-07T01:55:43.000Z,0
2023-03-07T01:57:00.000Z,0
2023-03-07T01:58:16.000Z,0
2023-03-07T01:59:31.000Z,0
2023-03-07T02:00:46.000Z,0
2023-03-07T02:02:02.000Z,0
2023-03-07T02:03:18.000Z,0
2023-03-07T02:04:34.000Z,0
2023-03-07T02:05:51.000Z,0
2023-03-07T02:07:07.000Z,0
2023-03-07T02:08:23.000Z,0
2023-03-07T02:09:39.000Z,0
2023-03-07T02:10:55.000Z,0
2023-03-07T02:12:11.000Z,0
2023-03-07T02:13:28.227Z,0
2023-03-07T02:14:44.000Z,0
2023-03-07T02:16:00.000Z,0
2023-03-07T02:17:15.000Z,0
2023-03-07T02:18:31.000Z,0
2023-03-07T02:19:47.000Z,0
2023-03-07T02:21:03.000Z,0
2023-03-07T02:22:20.000Z,0
2023-03-07T02:23:36.000Z,0
2023-03-07T02:24:52.000Z,0
2023-03-07T02:26:07.000Z,0
2023-03-07T02:27:22.000Z,0
2023-03-07T02:28:38.068Z,0
2023-03-07T02:29:53.000Z,0
2023-03-07T02:31:08.000Z,0
2023-03-07T02:32:23.000Z,0
2023-03-07T02:33:39.708Z,0
2023-03-07T02:34:55.000Z,0
2023-03-07T02:36:11.994Z,0
2023-03-07T02:37:27.000Z,0
2023-03-07T02:38:44.000Z,0
2023-03-07T02:40:00.000Z,0
2023-03-07T02:41:16.583Z,0
2023-03-07T02:42:32.000Z,0
2023-03-07T02:43:48.000Z,0
2023-03-07T02:45:04.000Z,0
2023-03-07T02:46:20.000Z,0
2023-03-07T02:47:37.000Z,0
2023-03-07T02:48:52.000Z,0
2023-03-07T02:50:08.000Z,0
2023-03-07T02:51:24.000Z,0
2023-03-07T02:52:40.000Z,0
2023-03-07T02:53:56.000Z,0
2023-03-07T02:55:12.000Z,0
2023-03-07T02:56:29.000Z,0
2023-03-07T02:57:44.000Z,0
2023-03-07T02:58:59.000Z,0
2023-03-07T03:00:15.835Z,0
2023-03-07T03:01:31.000Z,0
2023-03-07T03:02:46.000Z,0
2023-03-07T03:04:02.000Z,0
2023-03-07T03:05:18.000Z,0
2023-03-07T03:06:34.000Z,0
2023-03-07T03:07:50.000Z,0
2023-03-07T03:09:06.000Z,0
2023-03-07T03:10:22.000Z,0
2023-03-07T03:11:38.000Z,0
2023-03-07T03:12:55.000Z,0
2023-03-07T03:14:11.000Z,0
2023-03-07T03:15:27.000Z,0
2023-03-07T03:16:43.000Z,0
2023-03-07T03:17:59.000Z,0
2023-03-07T03:19:15.000Z,0
2023-03-07T03:20:30.000Z,0
2023-03-07T03:21:47.000Z,0
2023-03-07T03:23:03.000Z,0
2023-03-07T03:24:19.000Z,0
2023-03-07T03:25:35.000Z,0
2023-03-07T03:26:51.000Z,0
2023-03-07T03:28:07.000Z,0
2023-03-07T03:29:23.000Z,0
2023-03-07T03:30:38.000Z,0
2023-03-07T03:31:53.000Z,0
2023-03-07T03:33:08.000Z,0
2023-03-07T03:34:23.000Z,0
2023-03-07T03:35:38.000Z,0
2023-03-07T03:36:55.000Z,0
2023-03-07T03:38:11.000Z,0
2023-03-07T03:39:27.000Z,0
2023-03-07T03:40:43.000Z,0
2023-03-07T03:41:59.000Z,0
2023-03-07T03:43:15.000Z,0
2023-03-07T03:44:32.124Z,0
2023-03-07T03:45:48.000Z,0
2023-03-07T03:47:04.000Z,0
2023-03-07T03:48:20.000Z,0
2023-03-07T03:49:36.000Z,0
2023-03-07T03:50:52.000Z,0
2023-03-07T03:52:07.000Z,0
2023-03-07T03:53:24.173Z,0
2023-03-07T03:54:40.000Z,0
2023-03-07T03:55:56.000Z,0
2023-03-07T03:57:12.000Z,0
2023-03-07T03:58:28.000Z,0
2023-03-07T03:59:44.000Z,0
2023-03-07T04:00:59.000Z,0
2023-03-07T04:02:15.000Z,0
2023-03-07T04:03:30.000Z,0
2023-03-07T04:04:45.000Z,0
2023-03-07T04:06:01.000Z,0
2023-03-07T04:07:16.000Z,0
2023-03-07T04:08:31.000Z,0
2023-03-07T04:09:47.000Z,0
2023-03-07T04:11:04.000Z,0
2023-03-07T04:12:20.000Z,0
2023-03-07T04:13:36.000Z,0
2023-03-07T04:14:52.799Z,0
2023-03-07T04:16:08.000Z,0
2023-03-07T04:17:24.000Z,0
2023-03-07T04:18:41.000Z,0
2023-03-07T04:19:57.000Z,0
2023-03-07T04:21:13.000Z,0
2023-03-07T04:22:29.000Z,0
2023-03-07T04:23:45.000Z,0
2023-03-07T04:25:00.000Z,0
2023-03-07T04:26:16.000Z,0
2023-03-07T04:27:33.000Z,0
2023-03-07T04:28:49.000Z,0
2023-03-07T04:30:05.000Z,0
2023-03-07T04:31:21.000Z,0
2023-03-07T04:32:37.000Z,0
2023-03-07T04:33:53.000Z,0
2023-03-07T04:35:08.000Z,0
2023-03-07T04:36:24.000Z,0
2023-03-07T04:37:40.000Z,0
2023-03-07T04:38:56.000Z,0
2023-03-07T04:40:12.000Z,0
2023-03-07T04:41:28.000Z,0
2023-03-07T04:42:44.000Z,0
2023-03-07T04:44:01.000Z,0
2023-03-07T04:45:17.000Z,0
2023-03-07T04:47:49.000Z,0
2023-03-07T04:49:04.842Z,0
2023-03-07T04:50:20.000Z,0
2023-03-07T04:51:36.000Z,0
2023-03-07T04:52:53.000Z,0
2023-03-07T04:54:09.000Z,0
2023-03-07T04:55:25.000Z,0
2023-03-07T04:56:41.000Z,0
2023-03-07T04:57:57.000Z,0
2023-03-07T04:59:13.000Z,0
2023-03-07T05:00:29.000Z,0
2023-03-07T05:01:46.000Z,0
2023-03-07T05:03:01.000Z,0
2023-03-07T05:04:17.000Z,0
2023-03-07T05:05:32.000Z,0
2023-03-07T05:06:47.000Z,0
2023-03-07T05:08:03.000Z,0
2023-03-07T05:09:20.000Z,0
2023-03-07T05:10:36.000Z,0
2023-03-07T05:11:52.000Z,0
2023-03-07T05:13:08.000Z,0
2023-03-07T05:14:24.844Z,0
2023-03-07T05:15:40.000Z,0
2023-03-07T05:16:56.000Z,0
2023-03-07T05:18:13.000Z,0
2023-03-07T05:19:29.000Z,0
2023-03-07T05:22:01.000Z,0
2023-03-07T05:23:16.000Z,0
2023-03-07T05:24:32.000Z,0
2023-03-07T05:25:48.000Z,0
2023-03-07T05:27:05.000Z,0
2023-03-07T05:28:21.000Z,0
2023-03-07T05:29:37.000Z,0
2023-03-07T05:30:53.000Z,0
2023-03-07T05:32:09.000Z,0
2023-03-07T05:33:24.000Z,0
2023-03-07T05:34:41.000Z,0
2023-03-07T05:35:56.000Z,0
2023-03-07T05:37:11.000Z,0
2023-03-07T05:38:26.000Z,0
2023-03-07T05:39:41.913Z,0
2023-03-07T05:40:57.000Z,0
2023-03-07T05:42:13.000Z,0
2023-03-07T05:43:30.000Z,0
2023-03-07T05:44:46.000Z,0
2023-03-07T05:46:02.000Z,0
2023-03-07T05:47:18.000Z,0
2023-03-07T05:48:34.000Z,0
2023-03-07T05:49:50.000Z,0
2023-03-07T05:51:07.000Z,0
2023-03-07T05:52:23.000Z,0
2023-03-07T05:53:39.000Z,0
2023-03-07T05:54:55.679Z,0
2023-03-07T05:56:10.853Z,0
2023-03-07T05:57:26.000Z,0
2023-03-07T05:58:42.000Z,0
2023-03-07T05:59:59.000Z,0
2023-03-07T06:01:15.000Z,0
2023-03-07T06:02:31.000Z,0
2023-03-07T06:03:47.000Z,0
2023-03-07T06:05:02.000Z,0
2023-03-07T06:06:17.000Z,0
2023-03-07T06:07:33.000Z,0
2023-03-07T06:08:48.000Z,0
2023-03-07T06:10:04.000Z,0
2023-03-07T06:11:20.000Z,5
2023-03-07T06:12:36.000Z,0
2023-03-07T06:13:52.000Z,0
2023-03-07T06:15:08.000Z,0
2023-03-07T06:16:25.282Z,0
2023-03-07T06:17:41.000Z,0
2023-03-07T06:18:57.000Z,0
2023-03-07T06:20:13.000Z,0
2023-03-07T06:21:29.000Z,5
2023-03-07T06:22:45.000Z,0
2023-03-07T06:24:01.000Z,5
2023-03-07T06:25:17.000Z,5
2023-03-07T06:26:33.000Z,11
2023-03-07T06:27:49.000Z,11
2023-03-07T06:29:05.000Z,11
2023-03-07T06:30:21.000Z,5
2023-03-07T06:31:37.000Z,5
2023-03-07T06:32:53.000Z,5
2023-03-07T06:34:09.000Z,5
2023-03-07T06:35:24.000Z,5
2023-03-07T06:36:40.000Z,11
2023-03-07T06:37:55.000Z,11
2023-03-07T06:39:10.000Z,11
2023-03-07T06:40:26.000Z,11
2023-03-07T06:41:43.000Z,11
2023-03-07T06:42:59.000Z,16
2023-03-07T06:44:15.000Z,16
2023-03-07T06:45:31.000Z,16
2023-03-07T06:46:47.000Z,16
2023-03-07T06:48:03.000Z,16
2023-03-07T06:49:19.000Z,11
2023-03-07T06:50:36.000Z,16
2023-03-07T06:51:52.000Z,22
2023-03-07T06:53:08.000Z,22
2023-03-07T06:54:24.000Z,16
2023-03-07T06:55:39.957Z,16
2023-03-07T06:56:55.000Z,28
2023-03-07T06:58:12.000Z,28
2023-03-07T06:59:28.000Z,22
2023-03-07T07:00:44.000Z,16
2023-03-07T07:02:00.000Z,22
2023-03-07T07:03:16.000Z,28
2023-03-07T07:04:31.000Z,28
2023-03-07T07:05:46.000Z,33
2023-03-07T07:07:02.000Z,33
2023-03-07T07:08:17.507Z,33
2023-03-07T07:09:33.652Z,22
2023-03-07T07:10:49.000Z,22
2023-03-07T07:12:05.000Z,22
2023-03-07T07:13:21.000Z,22
2023-03-07T07:14:38.000Z,22
2023-03-07T07:15:54.000Z,22
2023-03-07T07:17:10.000Z,33
2023-03-07T07:18:26.000Z,33
2023-03-07T07:19:42.000Z,50
2023-03-07T07:20:58.000Z,28
2023-03-07T07:22:14.000Z,33
2023-03-07T07:23:31.000Z,28
2023-03-07T07:24:46.000Z,45
2023-03-07T07:26:02.000Z,45
2023-03-07T07:27:18.000Z,56
2023-03-07T07:28:34.000Z,28
2023-03-07T07:29:50.000Z,33
2023-03-07T07:31:06.000Z,28
2023-03-07T07:32:23.000Z,33
2023-03-07T07:33:38.000Z,28
2023-03-07T07:34:53.000Z,28
2023-03-07T07:36:08.000Z,50
2023-03-07T07:37:23.000Z,50
2023-03-07T07:38:40.135Z,33
2023-03-07T07:39:56.000Z,33
2023-03-07T07:41:12.000Z,90
2023-03-07T07:42:28.000Z,73
2023-03-07T07:43:44.000Z,28
2023-03-07T07:45:00.000Z,28
2023-03-07T07:46:16.000Z,45
2023-03-07T07:47:33.162Z,45
2023-03-07T07:48:49.307Z,39
2023-03-07T07:50:05.000Z,33
2023-03-07T07:51:21.000Z,45
2023-03-07T07:52:37.000Z,39
2023-03-07T07:53:52.000Z,50
2023-03-07T07:55:08.000Z,56
2023-03-07T07:56:24.000Z,78
2023-03-07T07:57:41.000Z,78
2023-03-07T07:58:57.000Z,56
2023-03-07T08:00:13.000Z,67
2023-03-07T08:01:29.000Z,61
2023-03-07T08:02:44.000Z,39
2023-03-07T08:03:59.000Z,39
2023-03-07T08:05:15.000Z,33
2023-03-07T08:06:30.000Z,45
2023-03-07T08:07:45.000Z,50
2023-03-07T08:09:00.000Z,67
2023-03-07T08:10:16.000Z,61
2023-03-07T08:11:32.000Z,84
2023-03-07T08:12:49.000Z,90
2023-03-07T08:15:21.000Z,67
2023-03-07T08:16:37.000Z,45
2023-03-07T08:17:53.000Z,78
2023-03-07T08:19:09.000Z,73
2023-03-07T08:20:25.000Z,61
2023-03-07T08:21:42.000Z,67
2023-03-07T08:22:58.000Z,61
2023-03-07T08:24:14.000Z,56
2023-03-07T08:25:29.000Z,45
2023-03-07T08:26:45.000Z,45
2023-03-07T08:28:01.000Z,28
2023-03-07T08:29:17.000Z,28
2023-03-07T08:30:34.000Z,39
2023-03-07T08:31:50.000Z,50
2023-03-07T08:33:06.000Z,50
2023-03-07T08:34:22.000Z,101
2023-03-07T08:35:37.000Z,95
2023-03-07T08:36:52.000Z,50
2023-03-07T08:38:08.000Z,56
2023-03-07T08:39:23.000Z,67
2023-03-07T08:40:39.000Z,67
2023-03-07T08:41:55.000Z,78
2023-03-07T08:43:11.000Z,61
2023-03-07T08:44:27.000Z,45
2023-03-07T08:45:43.000Z,56
2023-03-07T08:47:00.000Z,39
2023-03-07T08:48:16.000Z,39
2023-03-07T08:49:32.000Z,56
2023-03-07T08:50:48.000Z,106
2023-03-07T08:52:04.000Z,151
2023-03-07T08:53:20.000Z,123
2023-03-07T08:54:36.000Z,90
2023-03-07T08:55:52.000Z,84
2023-03-07T08:57:08.000Z,78
2023-03-07T08:58:24.000Z,56
2023-03-07T08:59:40.000Z,84
2023-03-07T09:00:56.000Z,73
2023-03-07T09:02:12.000Z,56
2023-03-07T09:03:28.000Z,45
2023-03-07T09:04:43.000Z,106
2023-03-07T09:05:58.000Z,106
2023-03-07T09:07:13.000Z,106
2023-03-07T09:08:28.000Z,106
2023-03-07T09:09:44.000Z,106
2023-03-07T09:11:01.000Z,112
2023-03-07T09:12:17.000Z,112
2023-03-07T09:13:33.000Z,61
2023-03-07T09:14:49.000Z,146
2023-03-07T09:16:05.000Z,163
2023-03-07T09:17:21.000Z,140
2023-03-07T09:18:37.000Z,123
2023-03-07T09:19:54.000Z,123
2023-03-07T09:21:10.000Z,129
2023-03-07T09:22:26.000Z,123
2023-03-07T09:23:42.000Z,135
2023-03-07T09:24:57.000Z,129
2023-03-07T09:26:13.000Z,129
2023-03-07T09:27:29.000Z,129
2023-03-07T09:28:46.000Z,157
2023-03-07T09:30:02.000Z,67
2023-03-07T09:31:18.000Z,67
2023-03-07T09:32:34.000Z,67
2023-03-07T09:33:49.000Z,106
2023-03-07T09:35:04.000Z,90
2023-03-07T09:36:20.000Z,78
2023-03-07T09:37:35.000Z,90
2023-03-07T09:40:07.000Z,67
2023-03-07T09:41:23.000Z,90
2023-03-07T09:42:39.000Z,50
2023-03-07T09:43:55.000Z,78
2023-03-07T09:45:12.000Z,90
2023-03-07T09:46:28.446Z,90
2023-03-07T09:47:44.000Z,73
2023-03-07T09:49:00.000Z,78
2023-03-07T09:50:16.000Z,123
2023-03-07T09:51:32.000Z,101
2023-03-07T09:52:48.000Z,90
2023-03-07T09:54:04.000Z,78
2023-03-07T09:55:20.000Z,95
2023-03-07T09:56:36.000Z,90
2023-03-07T09:57:52.000Z,95
2023-03-07T09:59:08.000Z,135
2023-03-07T10:00:24.000Z,236
2023-03-07T10:01:41.000Z,253
2023-03-07T10:02:57.384Z,174
2023-03-07T10:04:13.000Z,157
2023-03-07T10:05:28.000Z,146
2023-03-07T10:06:43.000Z,230
2023-03-07T10:07:59.000Z,157
2023-03-07T10:09:14.000Z,157
2023-03-07T10:10:30.000Z,157
2023-03-07T10:11:46.000Z,129
2023-03-07T10:13:02.000Z,123
2023-03-07T10:14:18.000Z,123
2023-03-07T10:15:34.000Z,123
2023-03-07T10:16:50.000Z,151
2023-03-07T10:18:07.000Z,236
2023-03-07T10:19:23.000Z,112
2023-03-07T10:20:39.000Z,123
2023-03-07T10:21:55.000Z,106
2023-03-07T10:23:11.000Z,73
2023-03-07T10:24:27.000Z,78
2023-03-07T10:25:44.110Z,90
2023-03-07T10:26:59.000Z,95
2023-03-07T10:28:15.000Z,129
2023-03-07T10:29:31.000Z,135
2023-03-07T10:30:47.000Z,67
2023-03-07T10:32:03.000Z,45
2023-03-07T10:33:19.000Z,56
2023-03-07T10:34:35.000Z,140
2023-03-07T10:35:51.000Z,208
2023-03-07T10:37:06.000Z,202
2023-03-07T10:38:21.000Z,168
2023-03-07T10:39:36.000Z,191
2023-03-07T10:40:52.000Z,191
2023-03-07T10:42:08.000Z,196
2023-03-07T10:43:25.000Z,202
2023-03-07T10:44:41.000Z,135
2023-03-07T10:45:57.000Z,270
2023-03-07T10:47:13.000Z,208
2023-03-07T10:48:29.000Z,202
2023-03-07T10:49:45.000Z,219
2023-03-07T10:51:01.000Z,168
2023-03-07T10:52:18.000Z,236
2023-03-07T10:53:34.000Z,84
2023-03-07T10:54:50.000Z,67
2023-03-07T10:56:05.000Z,56
2023-03-07T10:57:21.000Z,61
2023-03-07T10:58:37.000Z,73
2023-03-07T10:59:53.000Z,61
2023-03-07T11:01:10.000Z,73
2023-03-07T11:02:26.000Z,67
2023-03-07T11:03:42.000Z,45
2023-03-07T11:04:57.000Z,39
2023-03-07T11:06:12.000Z,45
2023-03-07T11:07:27.000Z,39
2023-03-07T11:08:43.000Z,45
2023-03-07T11:09:59.000Z,208
2023-03-07T11:11:15.000Z,101
2023-03-07T11:12:31.752Z,213
2023-03-07T11:13:47.000Z,67
2023-03-07T11:15:03.000Z,67
2023-03-07T11:16:19.000Z,61
2023-03-07T11:17:36.342Z,39
2023-03-07T11:18:52.000Z,45
2023-03-07T11:20:08.000Z,39
2023-03-07T11:21:24.000Z,33
2023-03-07T11:22:40.000Z,56
2023-03-07T11:23:56.000Z,78
2023-03-07T11:25:12.000Z,95
2023-03-07T11:26:28.000Z,73
2023-03-07T11:27:44.528Z,146
2023-03-07T11:29:00.000Z,168
2023-03-07T11:30:16.821Z,157
2023-03-07T11:31:32.000Z,196
2023-03-07T11:32:48.000Z,213
2023-03-07T11:34:04.000Z,180
2023-03-07T11:35:19.000Z,129
2023-03-07T11:36:34.000Z,95
2023-03-07T11:37:49.000Z,61
2023-03-07T11:39:05.000Z,50
2023-03-07T11:40:21.000Z,45
2023-03-07T11:41:38.000Z,33
2023-03-07T11:42:54.000Z,45
2023-03-07T11:44:10.000Z,56
2023-03-07T11:45:26.672Z,45
2023-03-07T11:46:42.000Z,45
2023-03-07T11:47:58.000Z,39
2023-03-07T11:49:14.000Z,39
2023-03-07T11:50:31.000Z,56
2023-03-07T11:51:47.000Z,39
2023-03-07T11:53:03.000Z,39
2023-03-07T11:54:18.000Z,73
2023-03-07T11:55:34.000Z,129
2023-03-07T11:56:50.000Z,185
2023-03-07T11:58:06.000Z,146
2023-03-07T11:59:23.000Z,112
2023-03-07T12:00:39.000Z,78
2023-03-07T12:01:55.000Z,56
2023-03-07T12:03:10.000Z,50
2023-03-07T12:04:25.000Z,56
2023-03-07T12:05:41.000Z,56
2023-03-07T12:06:58.000Z,61
2023-03-07T12:08:14.000Z,61
2023-03-07T12:09:30.000Z,95
2023-03-07T12:10:46.000Z,270
2023-03-07T12:12:02.000Z,286
2023-03-07T12:13:18.000Z,219
2023-03-07T12:14:34.000Z,236
2023-03-07T12:15:51.000Z,225
2023-03-07T12:17:07.000Z,219
2023-03-07T12:18:23.000Z,236
2023-03-07T12:19:39.000Z,303
2023-03-07T12:20:54.867Z,264
2023-03-07T12:22:10.000Z,292
2023-03-07T12:23:26.000Z,236
2023-03-07T12:24:43.000Z,196
2023-03-07T12:25:59.000Z,292
2023-03-07T12:27:15.000Z,78
2023-03-07T12:28:31.000Z,101
2023-03-07T12:29:46.000Z,67
2023-03-07T12:31:01.000Z,50
2023-03-07T12:33:33.000Z,78
2023-03-07T12:34:48.581Z,61
2023-03-07T12:36:03.000Z,225
2023-03-07T12:37:19.000Z,56
2023-03-07T12:38:35.000Z,50
2023-03-07T12:39:51.000Z,61
2023-03-07T12:41:08.000Z,219
2023-03-07T12:42:24.000Z,230
2023-03-07T12:43:40.000Z,56
2023-03-07T12:44:56.000Z,45
2023-03-07T12:46:12.000Z,39
2023-03-07T12:47:28.000Z,33
2023-03-07T12:48:44.000Z,45
2023-03-07T12:50:01.000Z,123
2023-03-07T12:51:17.000Z,196
2023-03-07T12:52:32.000Z,208
2023-03-07T12:53:48.000Z,225
2023-03-07T12:55:04.000Z,196
2023-03-07T12:56:21.112Z,241
2023-03-07T12:57:37.000Z,112
2023-03-07T12:58:53.000Z,73
2023-03-07T13:00:09.000Z,50
2023-03-07T13:01:25.000Z,45
2023-03-07T13:02:40.000Z,39
2023-03-07T13:03:55.000Z,50
2023-03-07T13:05:11.000Z,56
2023-03-07T13:06:28.000Z,56
2023-03-07T13:07:44.000Z,39
2023-03-07T13:09:00.000Z,39
2023-03-07T13:10:16.000Z,39
2023-03-07T13:11:32.000Z,185
2023-03-07T13:12:48.000Z,185
2023-03-07T13:14:04.000Z,56
2023-03-07T13:15:21.000Z,185
2023-03-07T13:16:37.000Z,106
2023-03-07T13:17:52.000Z,180
2023-03-07T13:19:08.000Z,33
2023-03-07T13:20:24.000Z,95
2023-03-07T13:21:40.000Z,39
2023-03-07T13:22:57.000Z,39
2023-03-07T13:24:13.412Z,50
2023-03-07T13:25:29.000Z,33
2023-03-07T13:26:45.000Z,33
2023-03-07T13:28:01.000Z,28
2023-03-07T13:29:16.000Z,28
2023-03-07T13:30:31.000Z,50
2023-03-07T13:31:48.319Z,112
2023-03-07T13:33:04.000Z,157
2023-03-07T13:34:20.607Z,247
2023-03-07T13:35:36.000Z,180
2023-03-07T13:36:52.000Z,191
2023-03-07T13:38:08.000Z,185
2023-03-07T13:39:24.000Z,157
2023-03-07T13:40:41.000Z,140
2023-03-07T13:41:57.000Z,135
2023-03-07T13:43:13.000Z,129
2023-03-07T13:44:29.000Z,129
2023-03-07T13:45:45.000Z,123
2023-03-07T13:47:00.000Z,123
2023-03-07T13:48:16.000Z,118
2023-03-07T13:49:33.000Z,112
2023-03-07T13:50:49.000Z,112
2023-03-07T13:52:05.000Z,106
2023-03-07T13:53:21.000Z,106
2023-03-07T13:54:37.000Z,101
2023-03-07T13:55:52.000Z,95
2023-03-07T13:57:08.000Z,95
2023-03-07T13:58:23.000Z,90
2023-03-07T13:59:38.000Z,90
2023-03-07T14:00:53.000Z,90
2023-03-07T14:02:08.000Z,106
2023-03-07T14:03:24.000Z,151
2023-03-07T14:05:57.000Z,50
2023-03-07T14:07:13.000Z,45
2023-03-07T14:08:29.000Z,33
2023-03-07T14:09:45.826Z,39
2023-03-07T14:11:01.000Z,39
2023-03-07T14:12:17.000Z,61
2023-03-07T14:13:34.000Z,67
2023-03-07T14:14:50.000Z,67
2023-03-07T14:16:06.000Z,61
2023-03-07T14:17:22.000Z,61
2023-03-07T14:18:37.000Z,56
2023-03-07T14:19:53.000Z,56
2023-03-07T14:21:09.000Z,56
2023-03-07T14:22:26.000Z,56
2023-03-07T14:23:42.000Z,56
2023-03-07T14:24:58.000Z,56
2023-03-07T14:26:14.732Z,50
2023-03-07T14:27:30.000Z,50
2023-03-07T14:28:45.000Z,50
2023-03-07T14:30:00.000Z,50
2023-03-07T14:31:16.000Z,50
2023-03-07T14:32:31.000Z,50
2023-03-07T14:33:46.000Z,50
2023-03-07T14:35:01.000Z,50
2023-03-07T14:36:17.000Z,50
2023-03-07T14:37:34.169Z,50
2023-03-07T14:38:50.000Z,50
2023-03-07T14:40:06.464Z,50
2023-03-07T14:41:22.000Z,50
2023-03-07T14:42:38.000Z,45
2023-03-07T14:43:54.000Z,50
2023-03-07T14:45:10.000Z,50
2023-03-07T14:46:26.000Z,45
2023-03-07T14:47:43.000Z,56
2023-03-07T14:48:59.000Z,78
2023-03-07T14:50:15.000Z,84
2023-03-07T14:51:30.787Z,84
2023-03-07T14:52:46.000Z,73
2023-03-07T14:54:02.000Z,95
2023-03-07T14:55:18.000Z,73
2023-03-07T14:56:35.000Z,67
2023-03-07T14:57:51.000Z,73
2023-03-07T14:59:07.000Z,78
2023-03-07T15:00:22.000Z,39
2023-03-07T15:01:37.000Z,50
2023-03-07T15:02:53.000Z,28
2023-03-07T15:04:10.000Z,45
2023-03-07T15:05:26.000Z,45
2023-03-07T15:06:42.000Z,50
2023-03-07T15:07:58.000Z,56
2023-03-07T15:09:14.000Z,33
2023-03-07T15:10:30.000Z,28
2023-03-07T15:11:46.000Z,39
2023-03-07T15:13:03.000Z,39
2023-03-07T15:14:19.000Z,39
2023-03-07T15:15:35.000Z,45
2023-03-07T15:16:51.000Z,45
2023-03-07T15:18:06.000Z,45
2023-03-07T15:19:22.000Z,56
2023-03-07T15:20:38.000Z,50
2023-03-07T15:21:55.341Z,45
2023-03-07T15:23:11.486Z,45
2023-03-07T15:24:27.000Z,39
2023-03-07T15:25:43.000Z,39
2023-03-07T15:26:58.000Z,39
2023-03-07T15:28:13.000Z,33
2023-03-07T15:29:29.000Z,28
2023-03-07T15:30:44.000Z,28
2023-03-07T15:32:00.000Z,45
2023-03-07T15:33:16.000Z,28
2023-03-07T15:34:32.000Z,33
2023-03-07T15:35:48.000Z,22
2023-03-07T15:37:03.000Z,28
2023-03-07T15:38:19.000Z,22
2023-03-07T15:39:34.000Z,22
2023-03-07T15:40:49.000Z,22
2023-03-07T15:43:21.000Z,16
2023-03-07T15:44:37.000Z,16
2023-03-07T15:45:54.000Z,16
2023-03-07T15:47:10.000Z,16
2023-03-07T15:48:26.568Z,16
2023-03-07T15:49:42.000Z,22
2023-03-07T15:50:58.000Z,22
2023-03-07T15:52:14.000Z,22
2023-03-07T15:53:30.000Z,28
2023-03-07T15:54:47.000Z,22
2023-03-07T15:56:03.000Z,16
2023-03-07T15:57:18.000Z,22
2023-03-07T15:58:34.754Z,22
2023-03-07T15:59:50.901Z,16
2023-03-07T16:01:06.000Z,16
2023-03-07T16:02:22.000Z,16
2023-03-07T16:03:39.332Z,16
2023-03-07T16:04:55.000Z,16
2023-03-07T16:06:11.000Z,22
2023-03-07T16:07:26.000Z,22
2023-03-07T16:08:41.000Z,22
2023-03-07T16:09:57.000Z,16
2023-03-07T16:11:13.000Z,16
2023-03-07T16:12:28.000Z,16
2023-03-07T16:13:44.000Z,16
2023-03-07T16:15:00.000Z,16
2023-03-07T16:16:16.000Z,16
2023-03-07T16:17:32.000Z,16
2023-03-07T16:18:48.000Z,16
2023-03-07T16:20:05.000Z,11
2023-03-07T16:21:21.460Z,11
2023-03-07T16:22:37.000Z,11
2023-03-07T16:23:53.000Z,11
2023-03-07T16:25:09.000Z,11
2023-03-07T16:26:25.000Z,11
2023-03-07T16:27:41.000Z,11
2023-03-07T16:30:13.000Z,11
2023-03-07T16:31:29.000Z,11
2023-03-07T16:32:45.000Z,11
2023-03-07T16:34:01.000Z,11
2023-03-07T16:35:17.000Z,11
2023-03-07T16:36:33.000Z,11
2023-03-07T16:37:50.000Z,5
2023-03-07T16:39:05.535Z,5
2023-03-07T16:40:20.000Z,5
2023-03-07T16:41:36.000Z,5
2023-03-07T16:42:52.000Z,5
2023-03-07T16:44:08.000Z,5
2023-03-07T16:45:25.291Z,5
2023-03-07T16:46:41.000Z,5
2023-03-07T16:47:57.570Z,5
2023-03-07T16:49:13.000Z,5
2023-03-07T16:50:29.000Z,5
2023-03-07T16:51:45.000Z,5
2023-03-07T16:53:01.000Z,5
2023-03-07T16:54:18.000Z,5
2023-03-07T16:55:34.000Z,0
2023-03-07T16:56:49.611Z,0
2023-03-07T16:58:05.768Z,0
2023-03-07T16:59:21.000Z,0
2023-03-07T17:00:37.000Z,0
2023-03-07T17:01:53.000Z,0
2023-03-07T17:03:10.000Z,0
2023-03-07T17:04:26.488Z,0
2023-03-07T17:05:41.658Z,0
2023-03-07T17:06:56.822Z,0
2023-03-07T17:08:11.000Z,0
2023-03-07T17:09:26.000Z,0
2023-03-07T17:10:43.298Z,0
2023-03-07T17:11:58.000Z,0
2023-03-07T17:13:13.000Z,0
2023-03-07T17:14:29.000Z,0
2023-03-07T17:15:45.000Z,0
2023-03-07T17:17:01.000Z,0
2023-03-07T17:18:17.000Z,0
2023-03-07T17:19:34.000Z,0
2023-03-07T17:20:50.000Z,0
2023-03-07T17:22:06.000Z,0
2023-03-07T17:23:22.000Z,0
2023-03-07T17:24:38.000Z,0
2023-03-07T17:25:54.000Z,0
2023-03-07T17:27:11.000Z,0
2023-03-07T17:28:27.387Z,0
2023-03-07T17:29:42.000Z,0
2023-03-07T17:30:58.000Z,0
2023-03-07T17:32:13.855Z,0
2023-03-07T17:33:29.000Z,0
2023-03-07T17:34:45.000Z,0
2023-03-07T17:36:02.000Z,0
2023-03-07T17:37:18.000Z,0
2023-03-07T17:38:33.612Z,0
2023-03-07T17:39:48.000Z,0
2023-03-07T17:41:03.956Z,0
2023-03-07T17:42:18.000Z,0
2023-03-07T17:43:35.000Z,0
2023-03-07T17:44:51.000Z,0
2023-03-07T17:46:07.000Z,0
2023-03-07T17:47:23.000Z,0
2023-03-07T17:48:39.000Z,0
2023-03-07T17:49:55.000Z,0
2023-03-07T17:51:11.000Z,0
2023-03-07T17:52:28.000Z,0
2023-03-07T17:53:44.000Z,0
2023-03-07T17:55:00.000Z,0
2023-03-07T17:56:16.710Z,0
2023-03-07T17:57:32.000Z,0
2023-03-07T17:58:47.000Z,0
2023-03-07T18:00:03.000Z,0
2023-03-07T18:01:20.000Z,0
2023-03-07T18:02:36.000Z,0
2023-03-07T18:03:52.000Z,0
2023-03-07T18:05:08.000Z,0
2023-03-07T18:06:24.000Z,0
2023-03-07T18:07:39.000Z,0
2023-03-07T18:08:54.000Z,0
2023-03-07T18:10:11.000Z,0
2023-03-07T18:11:27.000Z,0
2023-03-07T18:12:43.000Z,0
2023-03-07T18:13:59.000Z,0
2023-03-07T18:15:15.000Z,0
2023-03-07T18:16:31.000Z,0
2023-03-07T18:17:48.000Z,0
2023-03-07T18:19:04.412Z,0
2023-03-07T18:20:20.000Z,0
2023-03-07T18:21:36.000Z,0
2023-03-07T18:22:52.000Z,0
2023-03-07T18:24:08.000Z,0
2023-03-07T18:25:23.000Z,0
2023-03-07T18:26:40.000Z,0
2023-03-07T18:27:56.000Z,0
2023-03-07T18:29:12.000Z,0